Terminal Aerodrome Forecast
Issued by NWS

Home | Current Version | Previous Version | Graphics & Text | Print | Product List | Glossary On
Versions: 1 2 3 4 5 6 7 8 9 10 11 12 13 14 15 16 17 18 19 20 21
000
FTUS43 KGRB 160500
TAFCWA
TAF
KCWA 160534Z 1606/1706 09004KT 2SM -RA BR OVC003
     FM161000 35008KT 2SM -RASN BR OVC007
     FM161200 33012KT 2SM -SN BR OVC008
     FM161900 32014KT 5SM BR OVC013
      TEMPO 1619/1623 2SM -SN BR OVC009
     FM162300 32014KT 6SM BR OVC015 PROB30 1623/1702 5SM -SN BR
      OVC014
      AMD LTD TO CLD VIS AND WIND TIL 161200=

USA.gov is the U.S. government's official web portal to all federal, state and local government web resources and services.